sensor_id;sensor_type;location;lat;lon;timestamp;temperature;humidity
5868;DHT22;2960;49.142;7.768;2023-10-09T00:01:42;14.80;65.90
5868;DHT22;2960;49.142;7.768;2023-10-09T00:04:12;14.80;65.90
5868;DHT22;2960;49.142;7.768;2023-10-09T00:06:43;14.80;65.90
5868;DHT22;2960;49.142;7.768;2023-10-09T00:09:13;14.80;65.80
5868;DHT22;2960;49.142;7.768;2023-10-09T00:11:58;14.70;65.70
5868;DHT22;2960;49.142;7.768;2023-10-09T00:14:26;14.70;65.80
5868;DHT22;2960;49.142;7.768;2023-10-09T00:16:57;14.70;65.80
5868;DHT22;2960;49.142;7.768;2023-10-09T00:19:42;14.70;65.80
5868;DHT22;2960;49.142;7.768;2023-10-09T00:22:15;14.60;65.70
5868;DHT22;2960;49.142;7.768;2023-10-09T00:24:57;14.60;65.80
5868;DHT22;2960;49.142;7.768;2023-10-09T00:27:42;14.60;65.70
5868;DHT22;2960;49.142;7.768;2023-10-09T00:30:13;14.60;65.80
5868;DHT22;2960;49.142;7.768;2023-10-09T00:32:44;14.50;65.70
5868;DHT22;2960;49.142;7.768;2023-10-09T00:35:25;14.50;66.50
5868;DHT22;2960;49.142;7.768;2023-10-09T00:38:21;14.50;65.80
5868;DHT22;2960;49.142;7.768;2023-10-09T00:40:52;14.40;65.70
5868;DHT22;2960;49.142;7.768;2023-10-09T00:43:29;14.40;65.70
5868;DHT22;2960;49.142;7.768;2023-10-09T00:45:59;14.40;65.70
5868;DHT22;2960;49.142;7.768;2023-10-09T00:48:35;14.40;65.70
5868;DHT22;2960;49.142;7.768;2023-10-09T00:51:05;14.30;65.60
5868;DHT22;2960;49.142;7.768;2023-10-09T00:53:44;14.30;65.60
5868;DHT22;2960;49.142;7.768;2023-10-09T00:56:17;14.30;65.70
5868;DHT22;2960;49.142;7.768;2023-10-09T00:58:55;14.30;65.70
5868;DHT22;2960;49.142;7.768;2023-10-09T01:01:26;14.30;65.80
5868;DHT22;2960;49.142;7.768;2023-10-09T01:04:01;14.30;65.80
5868;DHT22;2960;49.142;7.768;2023-10-09T01:06:38;14.20;65.60
5868;DHT22;2960;49.142;7.768;2023-10-09T01:09:12;14.20;65.80
5868;DHT22;2960;49.142;7.768;2023-10-09T01:11:41;14.20;65.90
5868;DHT22;2960;49.142;7.768;2023-10-09T01:14:14;14.20;66.00
5868;DHT22;2960;49.142;7.768;2023-10-09T01:16:42;14.20;66.10
5868;DHT22;2960;49.142;7.768;2023-10-09T01:19:09;14.20;66.10
5868;DHT22;2960;49.142;7.768;2023-10-09T01:21:49;14.10;66.00
5868;DHT22;2960;49.142;7.768;2023-10-09T01:24:18;14.10;66.10
5868;DHT22;2960;49.142;7.768;2023-10-09T01:26:47;14.10;66.10
5868;DHT22;2960;49.142;7.768;2023-10-09T01:29:17;14.10;66.10
5868;DHT22;2960;49.142;7.768;2023-10-09T01:31:47;14.10;66.10
5868;DHT22;2960;49.142;7.768;2023-10-09T01:34:20;14.10;66.20
5868;DHT22;2960;49.142;7.768;2023-10-09T01:36:52;14.10;66.10
5868;DHT22;2960;49.142;7.768;2023-10-09T01:39:23;14.10;66.20
5868;DHT22;2960;49.142;7.768;2023-10-09T01:41:52;14.00;66.10
5868;DHT22;2960;49.142;7.768;2023-10-09T01:44:25;14.00;66.20
5868;DHT22;2960;49.142;7.768;2023-10-09T01:46:56;14.00;66.20
5868;DHT22;2960;49.142;7.768;2023-10-09T01:49:24;14.00;66.20
5868;DHT22;2960;49.142;7.768;2023-10-09T01:51:57;14.00;66.20
5868;DHT22;2960;49.142;7.768;2023-10-09T01:54:30;14.00;66.30
5868;DHT22;2960;49.142;7.768;2023-10-09T01:57:03;14.00;67.10
5868;DHT22;2960;49.142;7.768;2023-10-09T01:59:36;14.00;66.40
5868;DHT22;2960;49.142;7.768;2023-10-09T02:02:09;14.00;66.50
5868;DHT22;2960;49.142;7.768;2023-10-09T02:04:52;14.00;66.60
5868;DHT22;2960;49.142;7.768;2023-10-09T02:07:20;14.00;66.70
5868;DHT22;2960;49.142;7.768;2023-10-09T02:09:56;14.00;66.70
5868;DHT22;2960;49.142;7.768;2023-10-09T02:12:23;14.00;66.80
5868;DHT22;2960;49.142;7.768;2023-10-09T02:14:59;14.00;66.80
5868;DHT22;2960;49.142;7.768;2023-10-09T02:17:32;14.00;66.80
5868;DHT22;2960;49.142;7.768;2023-10-09T02:19:59;14.00;66.80
5868;DHT22;2960;49.142;7.768;2023-10-09T02:22:42;14.00;67.50
5868;DHT22;2960;49.142;7.768;2023-10-09T02:25:11;14.00;66.80
5868;DHT22;2960;49.142;7.768;2023-10-09T02:27:38;14.00;66.80
5868;DHT22;2960;49.142;7.768;2023-10-09T02:30:19;14.00;67.70
5868;DHT22;2960;49.142;7.768;2023-10-09T02:32:53;13.90;66.90
5868;DHT22;2960;49.142;7.768;2023-10-09T02:35:32;13.90;66.90
5868;DHT22;2960;49.142;7.768;2023-10-09T02:38:08;13.90;66.90
5868;DHT22;2960;49.142;7.768;2023-10-09T02:40:41;13.90;67.80
5868;DHT22;2960;49.142;7.768;2023-10-09T02:43:29;13.90;67.90
5868;DHT22;2960;49.142;7.768;2023-10-09T02:46:00;13.90;67.30
5868;DHT22;2960;49.142;7.768;2023-10-09T02:48:38;13.90;67.30
5868;DHT22;2960;49.142;7.768;2023-10-09T02:51:08;13.90;67.30
5868;DHT22;2960;49.142;7.768;2023-10-09T02:53:48;13.90;67.40
5868;DHT22;2960;49.142;7.768;2023-10-09T02:56:18;13.90;67.50
5868;DHT22;2960;49.142;7.768;2023-10-09T02:58:50;13.80;67.30
5868;DHT22;2960;49.142;7.768;2023-10-09T03:01:17;13.80;67.30
5868;DHT22;2960;49.142;7.768;2023-10-09T03:03:45;13.80;67.30
5868;DHT22;2960;49.142;7.768;2023-10-09T03:06:13;13.80;67.40
5868;DHT22;2960;49.142;7.768;2023-10-09T03:08:49;13.80;67.40
5868;DHT22;2960;49.142;7.768;2023-10-09T03:11:17;13.80;67.50
5868;DHT22;2960;49.142;7.768;2023-10-09T03:13:45;13.80;67.60
5868;DHT22;2960;49.142;7.768;2023-10-09T03:16:13;13.80;67.70
5868;DHT22;2960;49.142;7.768;2023-10-09T03:18:44;13.80;67.70
5868;DHT22;2960;49.142;7.768;2023-10-09T03:21:12;13.80;67.90
5868;DHT22;2960;49.142;7.768;2023-10-09T03:23:40;13.80;67.60
5868;DHT22;2960;49.142;7.768;2023-10-09T03:26:09;13.80;67.60
5868;DHT22;2960;49.142;7.768;2023-10-09T03:28:38;13.80;67.60
5868;DHT22;2960;49.142;7.768;2023-10-09T03:31:05;13.80;67.60
5868;DHT22;2960;49.142;7.768;2023-10-09T03:33:32;13.70;68.20
5868;DHT22;2960;49.142;7.768;2023-10-09T03:35:59;13.70;67.40
5868;DHT22;2960;49.142;7.768;2023-10-09T03:38:27;13.70;67.50
5868;DHT22;2960;49.142;7.768;2023-10-09T03:41:01;13.70;67.60
5868;DHT22;2960;49.142;7.768;2023-10-09T03:43:31;13.70;67.70
5868;DHT22;2960;49.142;7.768;2023-10-09T03:46:04;13.70;67.70
5868;DHT22;2960;49.142;7.768;2023-10-09T03:48:39;13.70;67.80
5868;DHT22;2960;49.142;7.768;2023-10-09T03:51:09;13.70;67.80
5868;DHT22;2960;49.142;7.768;2023-10-09T03:53:38;13.70;67.80
5868;DHT22;2960;49.142;7.768;2023-10-09T03:56:06;13.60;67.70
5868;DHT22;2960;49.142;7.768;2023-10-09T03:58:39;13.60;67.80
5868;DHT22;2960;49.142;7.768;2023-10-09T04:01:10;13.60;67.70
5868;DHT22;2960;49.142;7.768;2023-10-09T04:03:42;13.60;67.80
5868;DHT22;2960;49.142;7.768;2023-10-09T04:06:10;13.60;67.80
5868;DHT22;2960;49.142;7.768;2023-10-09T04:08:38;13.60;67.90
5868;DHT22;2960;49.142;7.768;2023-10-09T04:11:12;13.60;68.00
5868;DHT22;2960;49.142;7.768;2023-10-09T04:13:44;13.60;68.00
5868;DHT22;2960;49.142;7.768;2023-10-09T04:16:13;13.60;68.10
5868;DHT22;2960;49.142;7.768;2023-10-09T04:18:58;13.60;68.00
5868;DHT22;2960;49.142;7.768;2023-10-09T04:21:31;13.60;68.10
5868;DHT22;2960;49.142;7.768;2023-10-09T04:24:01;13.60;68.10
5868;DHT22;2960;49.142;7.768;2023-10-09T04:26:49;13.60;68.10
5868;DHT22;2960;49.142;7.768;2023-10-09T04:29:23;13.50;68.10
5868;DHT22;2960;49.142;7.768;2023-10-09T04:31:54;13.50;68.20
5868;DHT22;2960;49.142;7.768;2023-10-09T04:34:22;13.50;68.20
5868;DHT22;2960;49.142;7.768;2023-10-09T04:36:57;13.50;68.20
5868;DHT22;2960;49.142;7.768;2023-10-09T04:39:26;13.50;68.30
5868;DHT22;2960;49.142;7.768;2023-10-09T04:42:03;13.50;68.30
5868;DHT22;2960;49.142;7.768;2023-10-09T04:45:00;13.50;68.40
5868;DHT22;2960;49.142;7.768;2023-10-09T04:47:42;13.50;68.40
5868;DHT22;2960;49.142;7.768;2023-10-09T04:50:23;13.50;68.40
5868;DHT22;2960;49.142;7.768;2023-10-09T04:53:08;13.50;68.50
5868;DHT22;2960;49.142;7.768;2023-10-09T04:55:49;13.40;68.40
5868;DHT22;2960;49.142;7.768;2023-10-09T04:58:24;13.40;68.60
5868;DHT22;2960;49.142;7.768;2023-10-09T05:00:53;13.40;68.60
5868;DHT22;2960;49.142;7.768;2023-10-09T05:03:42;13.40;68.60
5868;DHT22;2960;49.142;7.768;2023-10-09T05:06:17;13.40;68.70
5868;DHT22;2960;49.142;7.768;2023-10-09T05:09:09;13.40;68.80
5868;DHT22;2960;49.142;7.768;2023-10-09T05:11:38;13.40;68.80
5868;DHT22;2960;49.142;7.768;2023-10-09T05:14:25;13.40;68.80
5868;DHT22;2960;49.142;7.768;2023-10-09T05:17:05;13.40;68.80
5868;DHT22;2960;49.142;7.768;2023-10-09T05:19:36;13.40;68.90
5868;DHT22;2960;49.142;7.768;2023-10-09T05:22:09;13.40;68.90
5868;DHT22;2960;49.142;7.768;2023-10-09T05:24:55;13.40;68.90
5868;DHT22;2960;49.142;7.768;2023-10-09T05:27:22;13.40;68.90
5868;DHT22;2960;49.142;7.768;2023-10-09T05:30:11;13.40;68.90
5868;DHT22;2960;49.142;7.768;2023-10-09T05:32:53;13.40;68.90
5868;DHT22;2960;49.142;7.768;2023-10-09T05:35:48;13.30;68.90
5868;DHT22;2960;49.142;7.768;2023-10-09T05:38:40;13.30;68.90
5868;DHT22;2960;49.142;7.768;2023-10-09T05:41:12;13.30;68.90
5868;DHT22;2960;49.142;7.768;2023-10-09T05:43:53;13.30;69.00
5868;DHT22;2960;49.142;7.768;2023-10-09T05:46:37;13.30;69.00
5868;DHT22;2960;49.142;7.768;2023-10-09T05:49:14;13.40;69.10
5868;DHT22;2960;49.142;7.768;2023-10-09T05:51:46;13.30;69.10
5868;DHT22;2960;49.142;7.768;2023-10-09T05:54:19;13.30;69.20
5868;DHT22;2960;49.142;7.768;2023-10-09T05:57:04;13.30;69.30
5868;DHT22;2960;49.142;7.768;2023-10-09T05:59:48;13.30;69.30
5868;DHT22;2960;49.142;7.768;2023-10-09T06:02:33;13.30;69.40
5868;DHT22;2960;49.142;7.768;2023-10-09T06:05:17;13.30;69.40
5868;DHT22;2960;49.142;7.768;2023-10-09T06:08:04;13.30;69.50
5868;DHT22;2960;49.142;7.768;2023-10-09T06:10:33;13.30;69.70
5868;DHT22;2960;49.142;7.768;2023-10-09T06:13:08;13.30;69.70
5868;DHT22;2960;49.142;7.768;2023-10-09T06:15:49;13.30;69.70
5868;DHT22;2960;49.142;7.768;2023-10-09T06:18:35;13.30;69.70
5868;DHT22;2960;49.142;7.768;2023-10-09T06:21:01;13.30;69.80
5868;DHT22;2960;49.142;7.768;2023-10-09T06:23:57;13.30;69.80
5868;DHT22;2960;49.142;7.768;2023-10-09T06:26:42;13.30;69.80
5868;DHT22;2960;49.142;7.768;2023-10-09T06:29:19;13.30;69.90
5868;DHT22;2960;49.142;7.768;2023-10-09T06:32:01;13.30;70.00
5868;DHT22;2960;49.142;7.768;2023-10-09T06:35:01;13.40;70.20
5868;DHT22;2960;49.142;7.768;2023-10-09T06:37:43;13.40;70.20
5868;DHT22;2960;49.142;7.768;2023-10-09T06:40:31;13.40;70.20
5868;DHT22;2960;49.142;7.768;2023-10-09T06:43:19;13.40;70.20
5868;DHT22;2960;49.142;7.768;2023-10-09T06:45:54;13.40;70.20
5868;DHT22;2960;49.142;7.768;2023-10-09T06:48:24;13.50;70.30
5868;DHT22;2960;49.142;7.768;2023-10-09T06:51:13;13.50;71.10
5868;DHT22;2960;49.142;7.768;2023-10-09T06:54:02;13.50;70.40
5868;DHT22;2960;49.142;7.768;2023-10-09T06:56:34;13.50;70.40
5868;DHT22;2960;49.142;7.768;2023-10-09T06:59:19;13.50;70.40
5868;DHT22;2960;49.142;7.768;2023-10-09T07:01:49;13.50;71.20
5868;DHT22;2960;49.142;7.768;2023-10-09T07:04:34;13.50;70.50
5868;DHT22;2960;49.142;7.768;2023-10-09T07:07:15;13.60;70.80
5868;DHT22;2960;49.142;7.768;2023-10-09T07:09:46;13.60;70.80
5868;DHT22;2960;49.142;7.768;2023-10-09T07:12:28;13.60;70.80
5868;DHT22;2960;49.142;7.768;2023-10-09T07:14:59;13.70;70.90
5868;DHT22;2960;49.142;7.768;2023-10-09T07:17:59;13.70;71.00
5868;DHT22;2960;49.142;7.768;2023-10-09T07:20:44;13.70;71.00
5868;DHT22;2960;49.142;7.768;2023-10-09T07:23:25;13.70;71.00
5868;DHT22;2960;49.142;7.768;2023-10-09T07:26:02;13.70;71.10
5868;DHT22;2960;49.142;7.768;2023-10-09T07:28:45;13.80;71.30
5868;DHT22;2960;49.142;7.768;2023-10-09T07:31:19;13.80;71.30
5868;DHT22;2960;49.142;7.768;2023-10-09T07:33:53;13.80;71.40
5868;DHT22;2960;49.142;7.768;2023-10-09T07:36:23;13.90;71.50
5868;DHT22;2960;49.142;7.768;2023-10-09T07:39:04;13.90;71.50
5868;DHT22;2960;49.142;7.768;2023-10-09T07:41:41;14.00;71.70
5868;DHT22;2960;49.142;7.768;2023-10-09T07:44:26;14.00;71.60
5868;DHT22;2960;49.142;7.768;2023-10-09T07:47:07;14.00;71.60
5868;DHT22;2960;49.142;7.768;2023-10-09T07:49:58;14.10;71.80
5868;DHT22;2960;49.142;7.768;2023-10-09T07:52:28;14.10;71.80
5868;DHT22;2960;49.142;7.768;2023-10-09T07:54:55;14.20;71.90
5868;DHT22;2960;49.142;7.768;2023-10-09T07:57:29;14.20;71.90
5868;DHT22;2960;49.142;7.768;2023-10-09T08:00:07;14.30;72.00
5868;DHT22;2960;49.142;7.768;2023-10-09T08:02:54;14.30;72.00
5868;DHT22;2960;49.142;7.768;2023-10-09T08:05:25;14.40;72.10
5868;DHT22;2960;49.142;7.768;2023-10-09T08:07:59;14.40;72.10
5868;DHT22;2960;49.142;7.768;2023-10-09T08:10:53;14.50;72.20
5868;DHT22;2960;49.142;7.768;2023-10-09T08:13:40;14.50;73.00
5868;DHT22;2960;49.142;7.768;2023-10-09T08:16:25;14.50;72.30
5868;DHT22;2960;49.142;7.768;2023-10-09T08:19:02;14.60;72.40
5868;DHT22;2960;49.142;7.768;2023-10-09T08:21:47;14.60;72.40
5868;DHT22;2960;49.142;7.768;2023-10-09T08:24:35;14.70;72.50
5868;DHT22;2960;49.142;7.768;2023-10-09T08:27:06;14.70;72.60
5868;DHT22;2960;49.142;7.768;2023-10-09T08:29:53;14.80;72.70
5868;DHT22;2960;49.142;7.768;2023-10-09T08:32:41;14.80;72.70
5868;DHT22;2960;49.142;7.768;2023-10-09T08:35:11;14.90;72.80
5868;DHT22;2960;49.142;7.768;2023-10-09T08:37:55;15.00;72.90
5868;DHT22;2960;49.142;7.768;2023-10-09T08:40:29;15.10;73.00
5868;DHT22;2960;49.142;7.768;2023-10-09T08:43:08;15.20;73.10
5868;DHT22;2960;49.142;7.768;2023-10-09T08:45:38;15.20;73.10
5868;DHT22;2960;49.142;7.768;2023-10-09T08:48:08;15.30;73.20
5868;DHT22;2960;49.142;7.768;2023-10-09T08:50:41;15.40;73.30
5868;DHT22;2960;49.142;7.768;2023-10-09T08:53:09;15.40;73.30
5868;DHT22;2960;49.142;7.768;2023-10-09T08:55:37;15.50;73.40
5868;DHT22;2960;49.142;7.768;2023-10-09T08:58:05;15.60;73.50
5868;DHT22;2960;49.142;7.768;2023-10-09T09:00:44;15.70;73.60
5868;DHT22;2960;49.142;7.768;2023-10-09T09:03:14;15.70;73.60
5868;DHT22;2960;49.142;7.768;2023-10-09T09:05:45;15.80;73.70
5868;DHT22;2960;49.142;7.768;2023-10-09T09:08:22;15.90;73.80
5868;DHT22;2960;49.142;7.768;2023-10-09T09:10:58;16.00;74.00
5868;DHT22;2960;49.142;7.768;2023-10-09T09:13:38;16.10;74.20
5868;DHT22;2960;49.142;7.768;2023-10-09T09:16:14;16.20;74.40
5868;DHT22;2960;49.142;7.768;2023-10-09T09:19:05;16.30;74.50
5868;DHT22;2960;49.142;7.768;2023-10-09T09:21:48;16.40;74.50
5868;DHT22;2960;49.142;7.768;2023-10-09T09:24:20;16.60;74.70
5868;DHT22;2960;49.142;7.768;2023-10-09T09:27:00;16.70;74.70
5868;DHT22;2960;49.142;7.768;2023-10-09T09:29:39;16.80;74.70
5868;DHT22;2960;49.142;7.768;2023-10-09T09:32:28;16.90;74.70
5868;DHT22;2960;49.142;7.768;2023-10-09T09:35:04;17.00;74.70
5868;DHT22;2960;49.142;7.768;2023-10-09T09:37:32;17.00;74.70
5868;DHT22;2960;49.142;7.768;2023-10-09T09:40:16;17.10;74.70
5868;DHT22;2960;49.142;7.768;2023-10-09T09:42:57;17.20;74.70
5868;DHT22;2960;49.142;7.768;2023-10-09T09:45:32;17.30;74.90
5868;DHT22;2960;49.142;7.768;2023-10-09T09:48:03;17.30;74.80
5868;DHT22;2960;49.142;7.768;2023-10-09T09:50:33;17.50;74.90
5868;DHT22;2960;49.142;7.768;2023-10-09T09:53:09;17.60;75.00
5868;DHT22;2960;49.142;7.768;2023-10-09T09:55:41;17.70;74.90
5868;DHT22;2960;49.142;7.768;2023-10-09T09:58:18;17.70;74.80
5868;DHT22;2960;49.142;7.768;2023-10-09T10:00:47;17.80;74.80
5868;DHT22;2960;49.142;7.768;2023-10-09T10:03:20;17.90;74.90
5868;DHT22;2960;49.142;7.768;2023-10-09T10:05:54;18.00;74.90
5868;DHT22;2960;49.142;7.768;2023-10-09T10:08:24;18.10;74.80
5868;DHT22;2960;49.142;7.768;2023-10-09T10:10:58;18.30;74.90
5868;DHT22;2960;49.142;7.768;2023-10-09T10:13:55;18.30;74.70
5868;DHT22;2960;49.142;7.768;2023-10-09T10:16:33;18.50;74.80
5868;DHT22;2960;49.142;7.768;2023-10-09T10:20:00;18.50;74.80
5868;DHT22;2960;49.142;7.768;2023-10-09T10:23:15;18.60;74.70
5868;DHT22;2960;49.142;7.768;2023-10-09T10:25:46;18.70;74.60
5868;DHT22;2960;49.142;7.768;2023-10-09T10:28:20;18.70;74.50
5868;DHT22;2960;49.142;7.768;2023-10-09T10:31:02;18.70;74.40
5868;DHT22;2960;49.142;7.768;2023-10-09T10:34:03;18.80;74.50
5868;DHT22;2960;49.142;7.768;2023-10-09T10:36:33;18.80;74.50
5868;DHT22;2960;49.142;7.768;2023-10-09T10:39:03;18.80;74.50
5868;DHT22;2960;49.142;7.768;2023-10-09T10:41:33;18.80;74.60
5868;DHT22;2960;49.142;7.768;2023-10-09T10:44:24;18.80;74.50
5868;DHT22;2960;49.142;7.768;2023-10-09T10:47:02;18.90;74.70
5868;DHT22;2960;49.142;7.768;2023-10-09T10:49:30;18.90;74.80
5868;DHT22;2960;49.142;7.768;2023-10-09T10:52:04;18.90;74.80
5868;DHT22;2960;49.142;7.768;2023-10-09T10:54:45;18.90;74.90
5868;DHT22;2960;49.142;7.768;2023-10-09T10:57:19;18.90;75.00
5868;DHT22;2960;49.142;7.768;2023-10-09T11:00:17;18.90;75.10
5868;DHT22;2960;49.142;7.768;2023-10-09T11:02:58;19.00;75.30
5868;DHT22;2960;49.142;7.768;2023-10-09T11:05:40;19.00;75.50
5868;DHT22;2960;49.142;7.768;2023-10-09T11:08:12;19.00;76.40
5868;DHT22;2960;49.142;7.768;2023-10-09T11:10:42;19.00;75.70
5868;DHT22;2960;49.142;7.768;2023-10-09T11:13:23;19.10;75.90
5868;DHT22;2960;49.142;7.768;2023-10-09T11:16:01;19.10;76.00
5868;DHT22;2960;49.142;7.768;2023-10-09T11:18:54;19.20;76.20
5868;DHT22;2960;49.142;7.768;2023-10-09T11:21:29;19.20;76.20
5868;DHT22;2960;49.142;7.768;2023-10-09T11:24:07;19.30;76.20
5868;DHT22;2960;49.142;7.768;2023-10-09T11:27:03;19.30;76.00
5868;DHT22;2960;49.142;7.768;2023-10-09T11:29:32;19.40;76.00
5868;DHT22;2960;49.142;7.768;2023-10-09T11:32:15;19.50;76.00
5868;DHT22;2960;49.142;7.768;2023-10-09T11:34:44;19.60;75.80
5868;DHT22;2960;49.142;7.768;2023-10-09T11:37:18;19.70;75.80
5868;DHT22;2960;49.142;7.768;2023-10-09T11:40:05;19.80;75.70
5868;DHT22;2960;49.142;7.768;2023-10-09T11:42:50;19.90;75.50
5868;DHT22;2960;49.142;7.768;2023-10-09T11:45:23;20.00;75.10
5868;DHT22;2960;49.142;7.768;2023-10-09T11:47:55;20.20;74.60
5868;DHT22;2960;49.142;7.768;2023-10-09T11:50:41;20.30;74.30
5868;DHT22;2960;49.142;7.768;2023-10-09T11:53:17;20.50;74.10
5868;DHT22;2960;49.142;7.768;2023-10-09T11:55:59;20.60;73.60
5868;DHT22;2960;49.142;7.768;2023-10-09T11:58:28;20.70;73.10
5868;DHT22;2960;49.142;7.768;2023-10-09T12:00:58;20.90;72.40
5868;DHT22;2960;49.142;7.768;2023-10-09T12:03:29;21.00;71.90
5868;DHT22;2960;49.142;7.768;2023-10-09T12:05:58;21.10;71.40
5868;DHT22;2960;49.142;7.768;2023-10-09T12:08:30;21.20;71.10
5868;DHT22;2960;49.142;7.768;2023-10-09T12:10:57;21.30;70.80
5868;DHT22;2960;49.142;7.768;2023-10-09T12:13:29;21.40;70.50
5868;DHT22;2960;49.142;7.768;2023-10-09T12:15:57;21.50;70.10
5868;DHT22;2960;49.142;7.768;2023-10-09T12:18:24;21.60;69.70
5868;DHT22;2960;49.142;7.768;2023-10-09T12:20:51;21.70;69.50
5868;DHT22;2960;49.142;7.768;2023-10-09T12:23:21;21.70;69.30
5868;DHT22;2960;49.142;7.768;2023-10-09T12:25:53;21.80;68.90
5868;DHT22;2960;49.142;7.768;2023-10-09T12:28:22;22.00;68.80
5868;DHT22;2960;49.142;7.768;2023-10-09T12:30:51;22.10;68.60
5868;DHT22;2960;49.142;7.768;2023-10-09T12:33:19;22.20;68.30
5868;DHT22;2960;49.142;7.768;2023-10-09T12:35:54;22.30;68.00
5868;DHT22;2960;49.142;7.768;2023-10-09T12:38:25;22.40;67.60
5868;DHT22;2960;49.142;7.768;2023-10-09T12:41:01;22.50;67.10
5868;DHT22;2960;49.142;7.768;2023-10-09T12:43:34;22.50;66.80
5868;DHT22;2960;49.142;7.768;2023-10-09T12:46:06;22.60;66.50
5868;DHT22;2960;49.142;7.768;2023-10-09T12:48:34;22.60;66.40
5868;DHT22;2960;49.142;7.768;2023-10-09T12:51:03;22.70;66.30
5868;DHT22;2960;49.142;7.768;2023-10-09T12:53:32;22.70;66.00
5868;DHT22;2960;49.142;7.768;2023-10-09T12:55:59;22.80;66.00
5868;DHT22;2960;49.142;7.768;2023-10-09T12:58:26;22.80;66.60
5868;DHT22;2960;49.142;7.768;2023-10-09T13:00:53;22.90;65.60
5868;DHT22;2960;49.142;7.768;2023-10-09T13:03:22;22.90;65.50
5868;DHT22;2960;49.142;7.768;2023-10-09T13:05:54;23.00;65.50
5868;DHT22;2960;49.142;7.768;2023-10-09T13:08:23;23.10;65.30
5868;DHT22;2960;49.142;7.768;2023-10-09T13:10:57;23.20;64.80
5868;DHT22;2960;49.142;7.768;2023-10-09T13:13:36;23.30;65.20
5868;DHT22;2960;49.142;7.768;2023-10-09T13:16:09;23.30;64.20
5868;DHT22;2960;49.142;7.768;2023-10-09T13:18:41;23.50;64.10
5868;DHT22;2960;49.142;7.768;2023-10-09T13:21:15;23.50;63.60
5868;DHT22;2960;49.142;7.768;2023-10-09T13:23:46;23.60;62.50
5868;DHT22;2960;49.142;7.768;2023-10-09T13:26:16;23.70;61.40
5868;DHT22;2960;49.142;7.768;2023-10-09T13:28:50;23.80;59.50
5868;DHT22;2960;49.142;7.768;2023-10-09T13:31:19;23.80;59.40
5868;DHT22;2960;49.142;7.768;2023-10-09T13:33:49;23.90;59.30
5868;DHT22;2960;49.142;7.768;2023-10-09T13:36:20;23.90;59.00
5868;DHT22;2960;49.142;7.768;2023-10-09T13:38:55;23.90;59.10
5868;DHT22;2960;49.142;7.768;2023-10-09T13:41:22;23.90;59.20
5868;DHT22;2960;49.142;7.768;2023-10-09T13:43:55;23.90;59.20
5868;DHT22;2960;49.142;7.768;2023-10-09T13:46:22;24.00;59.30
5868;DHT22;2960;49.142;7.768;2023-10-09T13:48:51;24.00;58.90
5868;DHT22;2960;49.142;7.768;2023-10-09T13:51:19;24.00;58.90
5868;DHT22;2960;49.142;7.768;2023-10-09T13:53:49;24.00;58.90
5868;DHT22;2960;49.142;7.768;2023-10-09T13:56:19;24.10;59.00
5868;DHT22;2960;49.142;7.768;2023-10-09T13:58:47;24.10;58.90
5868;DHT22;2960;49.142;7.768;2023-10-09T14:01:16;24.10;59.00
5868;DHT22;2960;49.142;7.768;2023-10-09T14:03:54;24.10;58.80
5868;DHT22;2960;49.142;7.768;2023-10-09T14:06:22;24.10;58.80
5868;DHT22;2960;49.142;7.768;2023-10-09T14:08:57;24.20;59.20
5868;DHT22;2960;49.142;7.768;2023-10-09T14:11:25;24.10;58.40
5868;DHT22;2960;49.142;7.768;2023-10-09T14:13:53;24.10;58.30
5868;DHT22;2960;49.142;7.768;2023-10-09T14:16:20;24.10;58.10
5868;DHT22;2960;49.142;7.768;2023-10-09T14:18:54;24.10;58.10
5868;DHT22;2960;49.142;7.768;2023-10-09T14:21:25;24.10;58.60
5868;DHT22;2960;49.142;7.768;2023-10-09T14:23:56;24.10;57.20
5868;DHT22;2960;49.142;7.768;2023-10-09T14:26:27;24.10;57.30
5868;DHT22;2960;49.142;7.768;2023-10-09T14:28:55;24.10;57.40
5868;DHT22;2960;49.142;7.768;2023-10-09T14:31:24;24.10;57.30
5868;DHT22;2960;49.142;7.768;2023-10-09T14:33:56;24.10;57.20
5868;DHT22;2960;49.142;7.768;2023-10-09T14:36:23;24.00;57.00
5868;DHT22;2960;49.142;7.768;2023-10-09T14:38:59;24.00;57.10
5868;DHT22;2960;49.142;7.768;2023-10-09T14:41:27;24.00;57.40
5868;DHT22;2960;49.142;7.768;2023-10-09T14:43:58;24.00;57.60
5868;DHT22;2960;49.142;7.768;2023-10-09T14:46:26;24.10;57.80
5868;DHT22;2960;49.142;7.768;2023-10-09T14:48:55;24.10;58.40
5868;DHT22;2960;49.142;7.768;2023-10-09T14:51:23;24.10;58.00
5868;DHT22;2960;49.142;7.768;2023-10-09T14:53:54;24.00;58.20
5868;DHT22;2960;49.142;7.768;2023-10-09T14:56:24;24.00;58.40
5868;DHT22;2960;49.142;7.768;2023-10-09T14:58:56;24.00;58.60
5868;DHT22;2960;49.142;7.768;2023-10-09T15:01:24;24.00;58.60
5868;DHT22;2960;49.142;7.768;2023-10-09T15:03:56;24.00;58.40
5868;DHT22;2960;49.142;7.768;2023-10-09T15:06:25;23.90;58.20
5868;DHT22;2960;49.142;7.768;2023-10-09T15:08:55;23.90;58.20
5868;DHT22;2960;49.142;7.768;2023-10-09T15:11:23;23.90;58.30
5868;DHT22;2960;49.142;7.768;2023-10-09T15:13:51;23.80;58.30
5868;DHT22;2960;49.142;7.768;2023-10-09T15:16:20;23.80;58.50
5868;DHT22;2960;49.142;7.768;2023-10-09T15:18:52;23.80;58.60
5868;DHT22;2960;49.142;7.768;2023-10-09T15:21:23;23.70;58.70
5868;DHT22;2960;49.142;7.768;2023-10-09T15:23:52;23.60;58.80
5868;DHT22;2960;49.142;7.768;2023-10-09T15:26:21;23.60;59.10
5868;DHT22;2960;49.142;7.768;2023-10-09T15:28:49;23.50;59.10
5868;DHT22;2960;49.142;7.768;2023-10-09T15:31:17;23.50;59.30
5868;DHT22;2960;49.142;7.768;2023-10-09T15:33:47;23.40;59.40
5868;DHT22;2960;49.142;7.768;2023-10-09T15:36:18;23.30;59.50
5868;DHT22;2960;49.142;7.768;2023-10-09T15:38:48;23.30;59.70
5868;DHT22;2960;49.142;7.768;2023-10-09T15:41:16;23.20;59.80
5868;DHT22;2960;49.142;7.768;2023-10-09T15:43:47;23.20;60.80
5868;DHT22;2960;49.142;7.768;2023-10-09T15:46:14;23.10;60.20
5868;DHT22;2960;49.142;7.768;2023-10-09T15:48:42;23.00;60.30
5868;DHT22;2960;49.142;7.768;2023-10-09T15:51:12;23.00;60.60
5868;DHT22;2960;49.142;7.768;2023-10-09T15:53:42;22.90;60.60
5868;DHT22;2960;49.142;7.768;2023-10-09T15:56:10;22.90;60.80
5868;DHT22;2960;49.142;7.768;2023-10-09T15:58:39;22.80;60.90
5868;DHT22;2960;49.142;7.768;2023-10-09T16:01:09;22.80;61.20
5868;DHT22;2960;49.142;7.768;2023-10-09T16:03:39;22.70;61.40
5868;DHT22;2960;49.142;7.768;2023-10-09T16:06:08;22.60;61.50
5868;DHT22;2960;49.142;7.768;2023-10-09T16:08:38;22.50;61.60
5868;DHT22;2960;49.142;7.768;2023-10-09T16:11:08;22.40;61.90
5868;DHT22;2960;49.142;7.768;2023-10-09T16:13:36;22.40;62.20
5868;DHT22;2960;49.142;7.768;2023-10-09T16:16:04;22.30;63.20
5868;DHT22;2960;49.142;7.768;2023-10-09T16:18:34;22.20;62.50
5868;DHT22;2960;49.142;7.768;2023-10-09T16:21:03;22.20;62.70
5868;DHT22;2960;49.142;7.768;2023-10-09T16:23:31;22.10;62.80
5868;DHT22;2960;49.142;7.768;2023-10-09T16:25:59;22.00;63.00
5868;DHT22;2960;49.142;7.768;2023-10-09T16:28:27;21.90;63.20
5868;DHT22;2960;49.142;7.768;2023-10-09T16:30:54;21.90;63.40
5868;DHT22;2960;49.142;7.768;2023-10-09T16:33:23;21.80;63.40
5868;DHT22;2960;49.142;7.768;2023-10-09T16:35:51;21.70;63.50
5868;DHT22;2960;49.142;7.768;2023-10-09T16:38:20;21.70;63.60
5868;DHT22;2960;49.142;7.768;2023-10-09T16:40:54;21.60;63.70
5868;DHT22;2960;49.142;7.768;2023-10-09T16:43:22;21.50;63.70
5868;DHT22;2960;49.142;7.768;2023-10-09T16:45:56;21.50;63.80
5868;DHT22;2960;49.142;7.768;2023-10-09T16:48:25;21.40;63.80
5868;DHT22;2960;49.142;7.768;2023-10-09T16:50:55;21.40;64.00